sensor_id;sensor_type;location;lat;lon;timestamp;P1;durP1;ratioP1;P2;durP2;ratioP2
40847;SDS011;26570;50.962;5.340;2023-05-07T00:02:39;4.97;;;4.47;;
40847;SDS011;26570;50.962;5.340;2023-05-07T00:14:17;4.17;;;3.13;;
40847;SDS011;26570;50.962;5.340;2023-05-07T00:18:21;6.28;;;3.25;;
40847;SDS011;26570;50.962;5.340;2023-05-07T00:25:52;5.10;;;4.30;;
40847;SDS011;26570;50.962;5.340;2023-05-07T00:32:54;4.93;;;4.17;;
40847;SDS011;26570;50.962;5.340;2023-05-07T00:36:38;5.67;;;4.43;;
40847;SDS011;26570;50.962;5.340;2023-05-07T00:47:51;5.32;;;4.00;;
40847;SDS011;26570;50.962;5.340;2023-05-07T00:55:32;7.67;;;3.30;;
40847;SDS011;26570;50.962;5.340;2023-05-07T01:07:55;5.67;;;2.93;;
40847;SDS011;26570;50.962;5.340;2023-05-07T01:20:13;3.67;;;2.80;;
40847;SDS011;26570;50.962;5.340;2023-05-07T01:24:15;4.20;;;3.80;;
40847;SDS011;26570;50.962;5.340;2023-05-07T01:31:51;8.17;;;3.57;;
40847;SDS011;26570;50.962;5.340;2023-05-07T01:35:40;6.20;;;3.80;;
40847;SDS011;26570;50.962;5.340;2023-05-07T01:43:07;5.23;;;3.77;;
40847;SDS011;26570;50.962;5.340;2023-05-07T01:55:08;5.67;;;3.57;;
40847;SDS011;26570;50.962;5.340;2023-05-07T01:59:08;5.77;;;4.13;;
40847;SDS011;26570;50.962;5.340;2023-05-07T02:02:45;7.20;;;4.43;;
40847;SDS011;26570;50.962;5.340;2023-05-07T02:10:10;6.73;;;4.73;;
40847;SDS011;26570;50.962;5.340;2023-05-07T02:13:01;6.10;;;4.80;;
40847;SDS011;26570;50.962;5.340;2023-05-07T02:20:27;3.97;;;3.57;;
40847;SDS011;26570;50.962;5.340;2023-05-07T02:24:00;4.47;;;3.47;;
40847;SDS011;26570;50.962;5.340;2023-05-07T02:27:35;5.17;;;4.47;;
40847;SDS011;26570;50.962;5.340;2023-05-07T02:35:38;5.33;;;4.47;;
40847;SDS011;26570;50.962;5.340;2023-05-07T02:39:00;4.70;;;4.10;;
40847;SDS011;26570;50.962;5.340;2023-05-07T02:42:54;8.47;;;5.57;;
40847;SDS011;26570;50.962;5.340;2023-05-07T02:46:41;6.25;;;4.40;;
40847;SDS011;26570;50.962;5.340;2023-05-07T03:02:28;3.57;;;3.27;;
40847;SDS011;26570;50.962;5.340;2023-05-07T03:06:08;3.53;;;2.93;;
40847;SDS011;26570;50.962;5.340;2023-05-07T03:09:31;5.00;;;4.35;;
40847;SDS011;26570;50.962;5.340;2023-05-07T03:17:00;6.57;;;4.93;;
40847;SDS011;26570;50.962;5.340;2023-05-07T03:20:52;7.90;;;4.27;;
40847;SDS011;26570;50.962;5.340;2023-05-07T03:24:57;4.47;;;3.80;;
40847;SDS011;26570;50.962;5.340;2023-05-07T03:28:52;6.23;;;4.20;;
40847;SDS011;26570;50.962;5.340;2023-05-07T03:33:01;5.37;;;4.87;;
40847;SDS011;26570;50.962;5.340;2023-05-07T03:36:46;5.40;;;4.30;;
40847;SDS011;26570;50.962;5.340;2023-05-07T03:40:35;7.27;;;5.13;;
40847;SDS011;26570;50.962;5.340;2023-05-07T03:44:27;6.60;;;4.93;;
40847;SDS011;26570;50.962;5.340;2023-05-07T03:48:29;8.40;;;4.67;;
40847;SDS011;26570;50.962;5.340;2023-05-07T03:51:54;7.57;;;4.77;;
40847;SDS011;26570;50.962;5.340;2023-05-07T03:55:31;7.57;;;5.77;;
40847;SDS011;26570;50.962;5.340;2023-05-07T03:59:05;10.57;;;6.23;;
40847;SDS011;26570;50.962;5.340;2023-05-07T04:02:43;7.70;;;5.53;;
40847;SDS011;26570;50.962;5.340;2023-05-07T04:06:00;5.77;;;4.00;;
40847;SDS011;26570;50.962;5.340;2023-05-07T04:09:44;9.17;;;5.00;;
40847;SDS011;26570;50.962;5.340;2023-05-07T04:17:33;6.37;;;4.50;;
40847;SDS011;26570;50.962;5.340;2023-05-07T04:25:24;8.83;;;5.80;;
40847;SDS011;26570;50.962;5.340;2023-05-07T04:43:40;5.50;;;5.07;;
40847;SDS011;26570;50.962;5.340;2023-05-07T04:47:01;7.00;;;4.40;;
40847;SDS011;26570;50.962;5.340;2023-05-07T04:50:16;5.57;;;4.20;;
40847;SDS011;26570;50.962;5.340;2023-05-07T04:53:30;4.30;;;3.67;;
40847;SDS011;26570;50.962;5.340;2023-05-07T04:57:35;5.17;;;4.07;;
40847;SDS011;26570;50.962;5.340;2023-05-07T05:01:21;5.28;;;4.35;;
40847;SDS011;26570;50.962;5.340;2023-05-07T05:05:21;5.27;;;3.30;;
40847;SDS011;26570;50.962;5.340;2023-05-07T05:08:51;6.57;;;3.75;;
40847;SDS011;26570;50.962;5.340;2023-05-07T05:12:35;5.20;;;3.40;;
40847;SDS011;26570;50.962;5.340;2023-05-07T05:16:23;6.00;;;4.20;;
40847;SDS011;26570;50.962;5.340;2023-05-07T05:27:13;6.43;;;4.05;;
40847;SDS011;26570;50.962;5.340;2023-05-07T05:30:35;4.10;;;3.70;;
40847;SDS011;26570;50.962;5.340;2023-05-07T05:34:00;6.77;;;3.60;;
40847;SDS011;26570;50.962;5.340;2023-05-07T05:38:07;5.30;;;3.90;;
40847;SDS011;26570;50.962;5.340;2023-05-07T05:40:58;5.63;;;3.50;;
40847;SDS011;26570;50.962;5.340;2023-05-07T05:43:50;5.90;;;4.47;;
40847;SDS011;26570;50.962;5.340;2023-05-07T05:46:39;6.30;;;3.60;;
40847;SDS011;26570;50.962;5.340;2023-05-07T05:49:42;4.57;;;3.60;;
40847;SDS011;26570;50.962;5.340;2023-05-07T05:52:33;4.47;;;3.30;;
40847;SDS011;26570;50.962;5.340;2023-05-07T05:55:25;3.17;;;2.57;;
40847;SDS011;26570;50.962;5.340;2023-05-07T05:58:19;3.20;;;2.53;;
40847;SDS011;26570;50.962;5.340;2023-05-07T06:01:14;3.73;;;2.80;;
40847;SDS011;26570;50.962;5.340;2023-05-07T06:04:05;7.13;;;3.00;;
40847;SDS011;26570;50.962;5.340;2023-05-07T06:07:22;3.67;;;3.27;;
40847;SDS011;26570;50.962;5.340;2023-05-07T06:10:12;4.23;;;2.40;;
40847;SDS011;26570;50.962;5.340;2023-05-07T06:13:20;4.60;;;3.00;;
40847;SDS011;26570;50.962;5.340;2023-05-07T06:16:13;4.40;;;2.13;;
40847;SDS011;26570;50.962;5.340;2023-05-07T06:19:03;3.58;;;2.97;;
40847;SDS011;26570;50.962;5.340;2023-05-07T06:21:58;5.07;;;3.30;;
40847;SDS011;26570;50.962;5.340;2023-05-07T06:25:05;5.90;;;2.60;;
40847;SDS011;26570;50.962;5.340;2023-05-07T06:27:58;5.23;;;2.60;;
40847;SDS011;26570;50.962;5.340;2023-05-07T06:30:51;5.13;;;3.25;;
40847;SDS011;26570;50.962;5.340;2023-05-07T06:33:41;8.00;;;2.95;;
40847;SDS011;26570;50.962;5.340;2023-05-07T06:36:34;4.93;;;2.38;;
40847;SDS011;26570;50.962;5.340;2023-05-07T06:39:24;4.28;;;2.55;;
40847;SDS011;26570;50.962;5.340;2023-05-07T06:42:17;4.80;;;2.92;;
40847;SDS011;26570;50.962;5.340;2023-05-07T06:45:08;2.53;;;2.03;;
40847;SDS011;26570;50.962;5.340;2023-05-07T06:48:00;3.13;;;2.00;;
40847;SDS011;26570;50.962;5.340;2023-05-07T06:51:24;3.22;;;2.10;;
40847;SDS011;26570;50.962;5.340;2023-05-07T06:54:17;3.08;;;2.20;;
40847;SDS011;26570;50.962;5.340;2023-05-07T06:57:12;4.57;;;1.73;;
40847;SDS011;26570;50.962;5.340;2023-05-07T07:00:43;5.10;;;2.40;;
40847;SDS011;26570;50.962;5.340;2023-05-07T07:04:21;3.47;;;1.48;;
40847;SDS011;26570;50.962;5.340;2023-05-07T07:07:17;2.92;;;2.03;;
40847;SDS011;26570;50.962;5.340;2023-05-07T07:10:14;3.97;;;1.17;;
40847;SDS011;26570;50.962;5.340;2023-05-07T07:13:29;2.60;;;1.25;;
40847;SDS011;26570;50.962;5.340;2023-05-07T07:16:27;2.40;;;1.08;;
40847;SDS011;26570;50.962;5.340;2023-05-07T07:19:16;4.03;;;1.02;;
40847;SDS011;26570;50.962;5.340;2023-05-07T07:22:16;3.55;;;0.85;;
40847;SDS011;26570;50.962;5.340;2023-05-07T07:25:26;4.03;;;1.15;;
40847;SDS011;26570;50.962;5.340;2023-05-07T07:28:20;3.20;;;0.80;;
40847;SDS011;26570;50.962;5.340;2023-05-07T07:31:16;2.72;;;0.82;;
40847;SDS011;26570;50.962;5.340;2023-05-07T07:34:45;3.17;;;1.00;;
40847;SDS011;26570;50.962;5.340;2023-05-07T07:38:11;2.47;;;1.00;;
40847;SDS011;26570;50.962;5.340;2023-05-07T07:41:32;2.35;;;0.80;;
40847;SDS011;26570;50.962;5.340;2023-05-07T07:44:30;1.98;;;0.95;;
40847;SDS011;26570;50.962;5.340;2023-05-07T07:47:49;4.55;;;0.80;;
40847;SDS011;26570;50.962;5.340;2023-05-07T07:51:11;2.97;;;1.00;;
40847;SDS011;26570;50.962;5.340;2023-05-07T07:54:34;2.17;;;1.00;;
40847;SDS011;26570;50.962;5.340;2023-05-07T07:58:09;2.47;;;0.90;;
40847;SDS011;26570;50.962;5.340;2023-05-07T08:01:10;3.38;;;1.60;;
40847;SDS011;26570;50.962;5.340;2023-05-07T08:04:08;1.98;;;0.93;;
40847;SDS011;26570;50.962;5.340;2023-05-07T08:07:25;4.47;;;1.13;;
40847;SDS011;26570;50.962;5.340;2023-05-07T08:10:26;3.22;;;1.05;;
40847;SDS011;26570;50.962;5.340;2023-05-07T08:13:29;3.15;;;0.85;;
40847;SDS011;26570;50.962;5.340;2023-05-07T08:16:30;3.08;;;0.80;;
40847;SDS011;26570;50.962;5.340;2023-05-07T08:19:26;1.90;;;0.75;;
40847;SDS011;26570;50.962;5.340;2023-05-07T08:22:24;5.63;;;0.80;;
40847;SDS011;26570;50.962;5.340;2023-05-07T08:25:14;2.25;;;0.90;;
40847;SDS011;26570;50.962;5.340;2023-05-07T08:28:56;3.20;;;1.10;;
40847;SDS011;26570;50.962;5.340;2023-05-07T08:31:58;2.33;;;1.00;;
40847;SDS011;26570;50.962;5.340;2023-05-07T08:34:51;2.35;;;0.88;;
40847;SDS011;26570;50.962;5.340;2023-05-07T08:37:40;2.50;;;0.70;;
40847;SDS011;26570;50.962;5.340;2023-05-07T08:40:28;2.40;;;0.80;;
40847;SDS011;26570;50.962;5.340;2023-05-07T08:43:50;1.48;;;0.60;;
40847;SDS011;26570;50.962;5.340;2023-05-07T08:46:41;2.65;;;1.00;;
40847;SDS011;26570;50.962;5.340;2023-05-07T08:49:41;4.53;;;1.00;;
40847;SDS011;26570;50.962;5.340;2023-05-07T08:52:39;4.10;;;0.77;;
40847;SDS011;26570;50.962;5.340;2023-05-07T08:55:43;2.60;;;0.77;;
40847;SDS011;26570;50.962;5.340;2023-05-07T08:58:44;4.90;;;0.90;;
40847;SDS011;26570;50.962;5.340;2023-05-07T09:01:43;2.60;;;1.08;;
40847;SDS011;26570;50.962;5.340;2023-05-07T09:04:32;3.83;;;1.05;;
40847;SDS011;26570;50.962;5.340;2023-05-07T09:08:05;4.65;;;1.20;;
40847;SDS011;26570;50.962;5.340;2023-05-07T09:11:26;2.47;;;1.02;;
40847;SDS011;26570;50.962;5.340;2023-05-07T09:14:18;2.22;;;0.90;;
40847;SDS011;26570;50.962;5.340;2023-05-07T09:17:16;2.15;;;0.90;;
40847;SDS011;26570;50.962;5.340;2023-05-07T09:20:05;3.60;;;1.00;;
40847;SDS011;26570;50.962;5.340;2023-05-07T09:23:24;3.50;;;1.40;;
40847;SDS011;26570;50.962;5.340;2023-05-07T09:26:31;3.40;;;1.20;;
40847;SDS011;26570;50.962;5.340;2023-05-07T09:29:32;5.95;;;1.42;;
40847;SDS011;26570;50.962;5.340;2023-05-07T09:32:43;3.42;;;1.20;;
40847;SDS011;26570;50.962;5.340;2023-05-07T09:36:12;3.25;;;1.00;;
40847;SDS011;26570;50.962;5.340;2023-05-07T09:39:46;1.83;;;1.00;;
40847;SDS011;26570;50.962;5.340;2023-05-07T09:43:11;4.90;;;0.82;;
40847;SDS011;26570;50.962;5.340;2023-05-07T09:49:29;3.05;;;1.33;;
40847;SDS011;26570;50.962;5.340;2023-05-07T09:52:32;3.28;;;0.80;;
40847;SDS011;26570;50.962;5.340;2023-05-07T09:56:02;3.17;;;1.00;;
40847;SDS011;26570;50.962;5.340;2023-05-07T09:59:16;2.95;;;1.20;;
40847;SDS011;26570;50.962;5.340;2023-05-07T10:02:11;3.83;;;1.15;;
40847;SDS011;26570;50.962;5.340;2023-05-07T10:05:08;3.55;;;0.90;;
40847;SDS011;26570;50.962;5.340;2023-05-07T10:08:09;3.58;;;0.80;;
40847;SDS011;26570;50.962;5.340;2023-05-07T10:11:07;4.13;;;1.10;;
40847;SDS011;26570;50.962;5.340;2023-05-07T10:14:31;4.80;;;1.27;;
40847;SDS011;26570;50.962;5.340;2023-05-07T10:17:36;3.22;;;1.00;;
40847;SDS011;26570;50.962;5.340;2023-05-07T10:21:04;9.80;;;2.05;;
40847;SDS011;26570;50.962;5.340;2023-05-07T10:27:25;3.47;;;1.00;;
40847;SDS011;26570;50.962;5.340;2023-05-07T10:30:34;4.15;;;1.20;;
40847;SDS011;26570;50.962;5.340;2023-05-07T10:33:48;5.78;;;1.50;;
40847;SDS011;26570;50.962;5.340;2023-05-07T10:36:42;4.47;;;1.63;;
40847;SDS011;26570;50.962;5.340;2023-05-07T10:40:06;7.63;;;2.22;;
40847;SDS011;26570;50.962;5.340;2023-05-07T10:43:57;8.20;;;2.35;;
40847;SDS011;26570;50.962;5.340;2023-05-07T10:53:36;11.25;;;2.50;;
40847;SDS011;26570;50.962;5.340;2023-05-07T10:56:45;5.35;;;2.20;;
40847;SDS011;26570;50.962;5.340;2023-05-07T10:59:40;7.65;;;2.75;;
40847;SDS011;26570;50.962;5.340;2023-05-07T11:03:10;7.30;;;2.63;;
40847;SDS011;26570;50.962;5.340;2023-05-07T11:06:11;7.25;;;2.60;;
40847;SDS011;26570;50.962;5.340;2023-05-07T11:16:06;5.30;;;2.17;;
40847;SDS011;26570;50.962;5.340;2023-05-07T11:19:48;8.13;;;1.80;;
40847;SDS011;26570;50.962;5.340;2023-05-07T11:23:56;6.85;;;1.70;;
40847;SDS011;26570;50.962;5.340;2023-05-07T11:27:02;4.72;;;1.85;;
40847;SDS011;26570;50.962;5.340;2023-05-07T11:30:46;6.10;;;1.20;;
40847;SDS011;26570;50.962;5.340;2023-05-07T11:34:32;5.70;;;1.75;;
40847;SDS011;26570;50.962;5.340;2023-05-07T11:38:01;7.35;;;1.45;;
40847;SDS011;26570;50.962;5.340;2023-05-07T11:41:00;5.55;;;1.85;;
40847;SDS011;26570;50.962;5.340;2023-05-07T11:44:43;5.95;;;2.25;;
40847;SDS011;26570;50.962;5.340;2023-05-07T11:47:59;5.63;;;1.85;;
40847;SDS011;26570;50.962;5.340;2023-05-07T11:51:15;6.90;;;1.50;;
40847;SDS011;26570;50.962;5.340;2023-05-07T11:54:09;6.75;;;2.30;;
40847;SDS011;26570;50.962;5.340;2023-05-07T11:57:14;5.47;;;1.63;;
40847;SDS011;26570;50.962;5.340;2023-05-07T12:00:21;4.90;;;1.88;;
40847;SDS011;26570;50.962;5.340;2023-05-07T12:06:35;6.45;;;1.80;;
40847;SDS011;26570;50.962;5.340;2023-05-07T12:09:22;7.60;;;2.10;;
40847;SDS011;26570;50.962;5.340;2023-05-07T12:12:07;4.57;;;1.52;;
40847;SDS011;26570;50.962;5.340;2023-05-07T12:14:53;4.40;;;1.10;;
40847;SDS011;26570;50.962;5.340;2023-05-07T12:17:38;5.78;;;1.70;;
40847;SDS011;26570;50.962;5.340;2023-05-07T12:20:24;5.55;;;1.77;;
40847;SDS011;26570;50.962;5.340;2023-05-07T12:23:09;5.40;;;1.60;;
40847;SDS011;26570;50.962;5.340;2023-05-07T12:25:55;5.23;;;1.50;;
40847;SDS011;26570;50.962;5.340;2023-05-07T12:28:40;4.68;;;1.77;;
40847;SDS011;26570;50.962;5.340;2023-05-07T12:31:26;6.22;;;1.70;;
40847;SDS011;26570;50.962;5.340;2023-05-07T12:34:11;4.55;;;1.73;;
40847;SDS011;26570;50.962;5.340;2023-05-07T12:36:55;5.07;;;2.00;;
40847;SDS011;26570;50.962;5.340;2023-05-07T12:39:44;7.20;;;1.65;;
40847;SDS011;26570;50.962;5.340;2023-05-07T12:42:32;4.70;;;1.40;;
40847;SDS011;26570;50.962;5.340;2023-05-07T12:45:23;2.65;;;1.30;;
40847;SDS011;26570;50.962;5.340;2023-05-07T12:48:10;2.92;;;1.20;;
40847;SDS011;26570;50.962;5.340;2023-05-07T12:50:56;2.78;;;1.00;;
40847;SDS011;26570;50.962;5.340;2023-05-07T12:53:42;7.18;;;1.25;;
40847;SDS011;26570;50.962;5.340;2023-05-07T12:56:27;2.03;;;1.00;;
40847;SDS011;26570;50.962;5.340;2023-05-07T12:59:15;4.07;;;1.23;;
40847;SDS011;26570;50.962;5.340;2023-05-07T13:02:01;4.93;;;1.20;;
40847;SDS011;26570;50.962;5.340;2023-05-07T13:04:48;6.28;;;1.20;;
40847;SDS011;26570;50.962;5.340;2023-05-07T13:07:33;4.60;;;0.80;;
40847;SDS011;26570;50.962;5.340;2023-05-07T13:10:18;3.42;;;0.50;;
40847;SDS011;26570;50.962;5.340;2023-05-07T13:13:03;1.73;;;0.47;;
40847;SDS011;26570;50.962;5.340;2023-05-07T13:15:49;6.82;;;0.60;;
40847;SDS011;26570;50.962;5.340;2023-05-07T13:18:33;2.10;;;0.47;;
40847;SDS011;26570;50.962;5.340;2023-05-07T13:21:18;2.95;;;0.40;;
40847;SDS011;26570;50.962;5.340;2023-05-07T13:24:04;4.60;;;0.90;;
40847;SDS011;26570;50.962;5.340;2023-05-07T13:26:49;3.78;;;0.98;;
40847;SDS011;26570;50.962;5.340;2023-05-07T13:29:34;3.63;;;1.35;;
40847;SDS011;26570;50.962;5.340;2023-05-07T13:32:19;3.00;;;0.70;;
40847;SDS011;26570;50.962;5.340;2023-05-07T13:35:07;3.90;;;0.80;;
40847;SDS011;26570;50.962;5.340;2023-05-07T13:37:52;4.45;;;0.90;;
40847;SDS011;26570;50.962;5.340;2023-05-07T13:40:38;2.72;;;0.70;;
40847;SDS011;26570;50.962;5.340;2023-05-07T13:43:24;3.45;;;1.10;;
40847;SDS011;26570;50.962;5.340;2023-05-07T13:46:09;2.80;;;0.98;;
40847;SDS011;26570;50.962;5.340;2023-05-07T13:48:54;2.53;;;0.60;;
40847;SDS011;26570;50.962;5.340;2023-05-07T13:51:39;4.25;;;0.50;;
40847;SDS011;26570;50.962;5.340;2023-05-07T13:54:23;3.33;;;0.50;;
40847;SDS011;26570;50.962;5.340;2023-05-07T13:57:08;2.25;;;0.50;;
40847;SDS011;26570;50.962;5.340;2023-05-07T13:59:53;2.20;;;0.52;;
40847;SDS011;26570;50.962;5.340;2023-05-07T14:02:38;3.70;;;0.80;;
40847;SDS011;26570;50.962;5.340;2023-05-07T14:05:24;2.72;;;0.60;;
40847;SDS011;26570;50.962;5.340;2023-05-07T14:08:09;3.28;;;0.60;;
40847;SDS011;26570;50.962;5.340;2023-05-07T14:10:55;1.40;;;0.30;;
40847;SDS011;26570;50.962;5.340;2023-05-07T14:13:39;3.60;;;0.50;;
40847;SDS011;26570;50.962;5.340;2023-05-07T14:16:24;2.38;;;0.30;;
40847;SDS011;26570;50.962;5.340;2023-05-07T14:19:09;2.50;;;0.50;;
40847;SDS011;26570;50.962;5.340;2023-05-07T14:21:55;2.65;;;0.40;;
40847;SDS011;26570;50.962;5.340;2023-05-07T14:24:40;4.43;;;0.40;;
40847;SDS011;26570;50.962;5.340;2023-05-07T14:27:26;3.60;;;0.50;;
40847;SDS011;26570;50.962;5.340;2023-05-07T14:30:17;1.65;;;0.63;;
40847;SDS011;26570;50.962;5.340;2023-05-07T14:33:02;6.30;;;0.40;;
40847;SDS011;26570;50.962;5.340;2023-05-07T14:35:47;1.50;;;0.40;;
40847;SDS011;26570;50.962;5.340;2023-05-07T14:38:33;0.90;;;0.40;;
40847;SDS011;26570;50.962;5.340;2023-05-07T14:41:18;1.38;;;0.45;;
40847;SDS011;26570;50.962;5.340;2023-05-07T14:44:04;2.45;;;0.40;;
40847;SDS011;26570;50.962;5.340;2023-05-07T14:46:55;1.90;;;0.45;;
40847;SDS011;26570;50.962;5.340;2023-05-07T14:49:40;3.00;;;0.85;;
40847;SDS011;26570;50.962;5.340;2023-05-07T14:52:25;2.42;;;0.50;;
40847;SDS011;26570;50.962;5.340;2023-05-07T14:55:11;1.92;;;0.60;;
40847;SDS011;26570;50.962;5.340;2023-05-07T14:57:56;2.80;;;0.65;;
40847;SDS011;26570;50.962;5.340;2023-05-07T15:00:41;2.03;;;0.50;;
40847;SDS011;26570;50.962;5.340;2023-05-07T15:03:26;2.22;;;0.40;;
40847;SDS011;26570;50.962;5.340;2023-05-07T15:06:11;2.05;;;0.40;;
40847;SDS011;26570;50.962;5.340;2023-05-07T15:08:56;3.22;;;0.45;;
40847;SDS011;26570;50.962;5.340;2023-05-07T15:11:42;4.60;;;0.50;;
40847;SDS011;26570;50.962;5.340;2023-05-07T15:14:27;2.63;;;0.45;;
40847;SDS011;26570;50.962;5.340;2023-05-07T15:17:12;2.13;;;0.50;;
40847;SDS011;26570;50.962;5.340;2023-05-07T15:19:59;1.10;;;0.60;;
40847;SDS011;26570;50.962;5.340;2023-05-07T15:22:44;1.85;;;0.50;;
40847;SDS011;26570;50.962;5.340;2023-05-07T15:25:30;5.03;;;0.50;;
40847;SDS011;26570;50.962;5.340;2023-05-07T15:28:16;2.53;;;0.60;;
40847;SDS011;26570;50.962;5.340;2023-05-07T15:31:01;3.55;;;0.50;;
40847;SDS011;26570;50.962;5.340;2023-05-07T15:33:59;3.42;;;0.52;;
40847;SDS011;26570;50.962;5.340;2023-05-07T15:36:44;4.50;;;0.50;;
40847;SDS011;26570;50.962;5.340;2023-05-07T15:39:29;1.98;;;0.50;;
40847;SDS011;26570;50.962;5.340;2023-05-07T15:42:14;3.58;;;0.70;;
40847;SDS011;26570;50.962;5.340;2023-05-07T15:44:59;2.88;;;0.40;;
40847;SDS011;26570;50.962;5.340;2023-05-07T15:47:45;2.17;;;0.40;;
40847;SDS011;26570;50.962;5.340;2023-05-07T15:50:30;1.95;;;0.45;;
40847;SDS011;26570;50.962;5.340;2023-05-07T15:53:15;3.53;;;0.40;;
40847;SDS011;26570;50.962;5.340;2023-05-07T15:56:00;2.92;;;0.38;;
40847;SDS011;26570;50.962;5.340;2023-05-07T15:58:45;2.13;;;0.30;;
40847;SDS011;26570;50.962;5.340;2023-05-07T16:01:31;4.53;;;0.52;;
40847;SDS011;26570;50.962;5.340;2023-05-07T16:04:16;2.65;;;0.30;;
40847;SDS011;26570;50.962;5.340;2023-05-07T16:07:01;1.88;;;0.88;;
40847;SDS011;26570;50.962;5.340;2023-05-07T16:09:46;2.22;;;0.40;;
40847;SDS011;26570;50.962;5.340;2023-05-07T16:12:31;1.50;;;0.40;;
40847;SDS011;26570;50.962;5.340;2023-05-07T16:15:17;1.05;;;0.28;;
40847;SDS011;26570;50.962;5.340;2023-05-07T16:18:02;1.88;;;0.30;;
40847;SDS011;26570;50.962;5.340;2023-05-07T16:20:52;1.70;;;0.30;;
40847;SDS011;26570;50.962;5.340;2023-05-07T16:23:37;2.45;;;0.30;;
40847;SDS011;26570;50.962;5.340;2023-05-07T16:26:22;0.68;;;0.20;;
40847;SDS011;26570;50.962;5.340;2023-05-07T16:29:07;2.90;;;0.60;;
40847;SDS011;26570;50.962;5.340;2023-05-07T16:31:52;0.98;;;0.30;;
40847;SDS011;26570;50.962;5.340;2023-05-07T16:34:37;2.88;;;0.30;;
40847;SDS011;26570;50.962;5.340;2023-05-07T16:37:22;1.15;;;0.30;;
40847;SDS011;26570;50.962;5.340;2023-05-07T16:40:07;2.45;;;0.40;;
40847;SDS011;26570;50.962;5.340;2023-05-07T16:42:52;3.50;;;0.30;;
40847;SDS011;26570;50.962;5.340;2023-05-07T16:45:37;1.48;;;0.40;;
40847;SDS011;26570;50.962;5.340;2023-05-07T16:48:22;1.73;;;0.40;;
40847;SDS011;26570;50.962;5.340;2023-05-07T16:51:07;2.00;;;0.30;;
40847;SDS011;26570;50.962;5.340;2023-05-07T16:54:17;1.48;;;0.22;;
40847;SDS011;26570;50.962;5.340;2023-05-07T16:57:02;2.05;;;0.20;;
40847;SDS011;26570;50.962;5.340;2023-05-07T16:59:47;1.25;;;0.68;;
40847;SDS011;26570;50.962;5.340;2023-05-07T17:02:32;1.55;;;0.22;;
40847;SDS011;26570;50.962;5.340;2023-05-07T17:05:18;1.92;;;0.30;;
40847;SDS011;26570;50.962;5.340;2023-05-07T17:08:03;1.88;;;0.45;;
40847;SDS011;26570;50.962;5.340;2023-05-07T17:10:48;0.88;;;0.30;;
40847;SDS011;26570;50.962;5.340;2023-05-07T17:13:33;1.25;;;0.30;;
40847;SDS011;26570;50.962;5.340;2023-05-07T17:16:18;1.40;;;0.25;;
40847;SDS011;26570;50.962;5.340;2023-05-07T17:19:03;1.55;;;0.30;;
40847;SDS011;26570;50.962;5.340;2023-05-07T17:21:48;2.17;;;0.30;;
40847;SDS011;26570;50.962;5.340;2023-05-07T17:24:33;1.75;;;0.30;;
40847;SDS011;26570;50.962;5.340;2023-05-07T17:27:19;1.17;;;0.28;;
40847;SDS011;26570;50.962;5.340;2023-05-07T17:30:04;0.80;;;0.30;;
40847;SDS011;26570;50.962;5.340;2023-05-07T17:32:49;1.20;;;0.30;;
40847;SDS011;26570;50.962;5.340;2023-05-07T17:35:34;1.75;;;0.30;;
40847;SDS011;26570;50.962;5.340;2023-05-07T17:38:19;3.33;;;0.28;;
40847;SDS011;26570;50.962;5.340;2023-05-07T17:41:04;1.48;;;0.30;;
40847;SDS011;26570;50.962;5.340;2023-05-07T17:43:50;1.08;;;0.30;;
40847;SDS011;26570;50.962;5.340;2023-05-07T17:46:36;2.75;;;0.28;;
40847;SDS011;26570;50.962;5.340;2023-05-07T17:49:21;2.60;;;0.30;;
40847;SDS011;26570;50.962;5.340;2023-05-07T17:52:07;1.17;;;0.20;;
40847;SDS011;26570;50.962;5.340;2023-05-07T17:54:52;1.20;;;0.22;;
40847;SDS011;26570;50.962;5.340;2023-05-07T17:57:36;0.88;;;0.20;;
40847;SDS011;26570;50.962;5.340;2023-05-07T18:00:21;1.75;;;0.30;;
40847;SDS011;26570;50.962;5.340;2023-05-07T18:03:06;1.05;;;0.30;;
40847;SDS011;26570;50.962;5.340;2023-05-07T18:05:51;3.15;;;0.40;;
40847;SDS011;26570;50.962;5.340;2023-05-07T18:08:36;1.08;;;0.40;;
40847;SDS011;26570;50.962;5.340;2023-05-07T18:11:21;1.85;;;0.30;;
40847;SDS011;26570;50.962;5.340;2023-05-07T18:14:06;1.30;;;0.20;;
40847;SDS011;26570;50.962;5.340;2023-05-07T18:16:51;1.55;;;0.30;;
40847;SDS011;26570;50.962;5.340;2023-05-07T18:19:37;0.80;;;0.30;;
40847;SDS011;26570;50.962;5.340;2023-05-07T18:22:22;1.75;;;0.40;;
40847;SDS011;26570;50.962;5.340;2023-05-07T18:25:07;1.70;;;0.40;;
40847;SDS011;26570;50.962;5.340;2023-05-07T18:27:52;2.63;;;0.30;;
40847;SDS011;26570;50.962;5.340;2023-05-07T18:30:37;1.08;;;0.30;;
40847;SDS011;26570;50.962;5.340;2023-05-07T18:33:22;1.10;;;0.30;;
40847;SDS011;26570;50.962;5.340;2023-05-07T18:36:07;2.42;;;0.30;;
40847;SDS011;26570;50.962;5.340;2023-05-07T18:38:51;1.92;;;0.38;;
40847;SDS011;26570;50.962;5.340;2023-05-07T18:41:37;2.15;;;0.40;;
40847;SDS011;26570;50.962;5.340;2023-05-07T18:44:22;2.58;;;0.32;;
40847;SDS011;26570;50.962;5.340;2023-05-07T18:47:08;1.10;;;0.30;;
40847;SDS011;26570;50.962;5.340;2023-05-07T18:49:53;4.20;;;0.40;;
40847;SDS011;26570;50.962;5.340;2023-05-07T18:52:38;1.10;;;0.30;;
40847;SDS011;26570;50.962;5.340;2023-05-07T18:55:23;2.42;;;0.40;;
40847;SDS011;26570;50.962;5.340;2023-05-07T18:58:08;2.25;;;0.30;;
40847;SDS011;26570;50.962;5.340;2023-05-07T19:00:52;2.90;;;0.40;;
40847;SDS011;26570;50.962;5.340;2023-05-07T19:03:38;1.77;;;0.30;;
40847;SDS011;26570;50.962;5.340;2023-05-07T19:06:23;2.25;;;0.70;;
40847;SDS011;26570;50.962;5.340;2023-05-07T19:09:09;1.53;;;0.60;;
40847;SDS011;26570;50.962;5.340;2023-05-07T19:11:54;2.77;;;0.40;;
40847;SDS011;26570;50.962;5.340;2023-05-07T19:14:39;1.30;;;0.40;;
40847;SDS011;26570;50.962;5.340;2023-05-07T19:17:25;2.80;;;0.50;;
40847;SDS011;26570;50.962;5.340;2023-05-07T19:20:10;1.42;;;0.40;;
40847;SDS011;26570;50.962;5.340;2023-05-07T19:22:55;3.53;;;0.60;;
40847;SDS011;26570;50.962;5.340;2023-05-07T19:25:40;3.67;;;0.60;;
40847;SDS011;26570;50.962;5.340;2023-05-07T19:28:25;2.53;;;0.60;;
40847;SDS011;26570;50.962;5.340;2023-05-07T19:31:20;5.83;;;1.07;;
40847;SDS011;26570;50.962;5.340;2023-05-07T19:34:06;4.07;;;1.00;;
40847;SDS011;26570;50.962;5.340;2023-05-07T19:40:41;2.57;;;0.60;;
40847;SDS011;26570;50.962;5.340;2023-05-07T19:43:49;3.07;;;0.60;;
40847;SDS011;26570;50.962;5.340;2023-05-07T19:46:35;3.53;;;0.60;;
40847;SDS011;26570;50.962;5.340;2023-05-07T19:49:23;1.27;;;0.50;;
40847;SDS011;26570;50.962;5.340;2023-05-07T19:52:09;2.73;;;0.60;;
40847;SDS011;26570;50.962;5.340;2023-05-07T19:54:54;2.57;;;0.80;;
40847;SDS011;26570;50.962;5.340;2023-05-07T19:57:40;3.23;;;0.70;;
40847;SDS011;26570;50.962;5.340;2023-05-07T20:00:25;4.27;;;0.70;;
40847;SDS011;26570;50.962;5.340;2023-05-07T20:03:14;1.33;;;0.60;;
40847;SDS011;26570;50.962;5.340;2023-05-07T20:06:01;2.73;;;0.60;;
40847;SDS011;26570;50.962;5.340;2023-05-07T20:08:46;3.13;;;0.63;;
40847;SDS011;26570;50.962;5.340;2023-05-07T20:11:32;3.67;;;0.80;;
40847;SDS011;26570;50.962;5.340;2023-05-07T20:14:17;4.33;;;0.80;;
40847;SDS011;26570;50.962;5.340;2023-05-07T20:17:03;4.23;;;0.60;;
40847;SDS011;26570;50.962;5.340;2023-05-07T20:19:48;1.93;;;0.60;;
40847;SDS011;26570;50.962;5.340;2023-05-07T20:22:33;1.80;;;0.60;;
40847;SDS011;26570;50.962;5.340;2023-05-07T20:25:20;7.63;;;0.70;;
40847;SDS011;26570;50.962;5.340;2023-05-07T20:28:05;2.77;;;0.60;;
40847;SDS011;26570;50.962;5.340;2023-05-07T20:30:50;2.10;;;0.80;;
40847;SDS011;26570;50.962;5.340;2023-05-07T20:33:37;1.87;;;0.80;;
40847;SDS011;26570;50.962;5.340;2023-05-07T20:36:23;2.73;;;0.70;;
40847;SDS011;26570;50.962;5.340;2023-05-07T20:39:09;1.60;;;0.60;;
40847;SDS011;26570;50.962;5.340;2023-05-07T20:41:58;4.47;;;0.60;;